CYDL

Dease Lake Airport

Dease Lake, , Canada
METAR CYDL 190700Z AUTO VRB03KT 9SM OVC100 M11/M13 A2924 RMK SLP946
Observed Flight Rules
Dec-19 @ 07:00 UTC (32 minutes ago) Visual Flight Rules
Wind Visibility Clouds
Variable at 3 knots 9 miles
  • Overcast at 10,000' AGL
Temperatures Readings
Current -11°C / 12°F
Dewpoint -13°C / 9°F
Humidity 85%
Altimeter 29.24" Hg
Pressure 994.6 hPa
Elevation 816
METAR CYDL 190700Z AUTO VRB03KT 9SM OVC100 M11/M13 A2924 RMK SLP946
Observed Flight Rules
Dec-19 @ 07:00 UTC
(32 minutes ago)
VFR
Wind Visibility
Variable at 3 knots 9 miles
Clouds
  • Overcast at 10,000' AGL
Temperature Dewpoint
-11°C / 12°F -13°C / 9°F
Humidity Altimeter Pressure
85% 29.24" Hg 994.6 hPa